Time;durP1;ratioP1;P1;durP2;ratioP2;P2;SDS_P1;SDS_P2;PMS_P1;PMS_P2;Temp;Humidity;BMP_temperature;BMP_pressure;BME280_temperature;BME280_humidity;BME280_pressure;Samples;Min_cycle;Max_cycle;Signal;HPM_P1;HPM_P2
2022/10/03 00:00:15;;;;;;;6.60;2.40;;;;;;;10.09;87.76;99782.19;85830;1300;81903;-59
2022/10/03 00:03:19;;;;;;;5.70;2.40;;;;;;;10.08;87.81;99779.82;85791;1299;98911;-58
2022/10/03 00:05:45;;;;;;;11.60;2.40;;;;;;;10.05;87.77;99783.05;85818;1302;88199;-59
2022/10/03 00:08:08;;;;;;;6.30;2.60;;;;;;;10.05;87.93;99784.84;85793;1300;92509;-60
2022/10/03 00:10:34;;;;;;;5.10;2.60;;;;;;;10.04;87.86;99783.71;85830;1302;80572;-60
2022/10/03 00:12:58;;;;;;;6.90;2.30;;;;;;;10.06;87.80;99785.42;85826;1300;82003;-60
2022/10/03 00:15:20;;;;;;;5.30;2.10;;;;;;;10.09;87.81;99784.39;85835;1300;97258;-59
2022/10/03 00:17:46;;;;;;;5.30;2.20;;;;;;;10.12;87.74;99784.77;85838;1300;85986;-59
2022/10/03 00:20:08;;;;;;;7.30;2.20;;;;;;;10.11;87.80;99784.52;85835;1302;96042;-60
2022/10/03 00:22:31;;;;;;;7.80;2.90;;;;;;;10.10;87.74;99787.14;85856;1300;81637;-61
2022/10/03 00:24:56;;;;;;;5.30;2.40;;;;;;;10.09;87.75;99782.36;85896;1300;83675;-60
2022/10/03 00:27:15;;;;;;;4.80;2.30;;;;;;;10.08;87.80;99780.20;85852;1299;95820;-62
2022/10/03 00:29:42;;;;;;;6.20;2.40;;;;;;;10.06;87.88;99781.52;85907;1302;88334;-61
2022/10/03 00:32:04;;;;;;;6.40;2.40;;;;;;;10.05;87.92;99778.45;85863;1300;93524;-61
2022/10/03 00:34:31;;;;;;;5.40;2.00;;;;;;;10.12;87.85;99777.85;85833;1300;82009;-58
2022/10/03 00:36:59;;;;;;;6.50;2.90;;;;;;;10.14;87.80;99772.69;85811;1299;82519;-59
2022/10/03 00:39:28;;;;;;;6.90;2.50;;;;;;;10.16;87.80;99769.05;85795;1302;97567;-61
2022/10/03 00:42:17;;;;;;;5.20;2.30;;;;;;;10.17;87.83;99765.64;85809;1300;87853;-61
2022/10/03 00:45:15;;;;;;;8.70;2.40;;;;;;;10.14;87.80;99765.41;85820;1300;95122;-59
2022/10/03 00:48:21;;;;;;;4.90;2.90;;;;;;;10.10;87.82;99761.02;85721;1300;81729;-59
2022/10/03 00:51:01;;;;;;;6.70;2.60;;;;;;;10.15;87.71;99758.52;85461;1309;80876;-56
2022/10/03 00:54:03;;;;;;;7.30;2.80;;;;;;;10.13;87.74;99760.02;85742;1300;97501;-56
2022/10/03 00:56:51;;;;;;;7.40;2.60;;;;;;;10.10;87.87;99755.21;85557;1304;88644;-57
2022/10/03 00:59:18;;;;;;;4.80;2.80;;;;;;;10.11;87.86;99749.23;85847;1300;93185;-61
2022/10/03 01:01:43;;;;;;;4.50;2.80;;;;;;;10.14;87.75;99741.89;85843;1295;81725;-61
2022/10/03 01:04:06;;;;;;;5.60;2.80;;;;;;;10.14;87.82;99739.35;85894;1302;81896;-62
2022/10/03 01:06:35;;;;;;;8.10;2.90;;;;;;;10.15;87.78;99737.87;85847;1302;96876;-60
2022/10/03 01:09:10;;;;;;;8.20;3.30;;;;;;;10.17;87.79;99736.20;85827;1301;89006;-61
2022/10/03 01:11:36;;;;;;;8.20;3.70;;;;;;;10.15;87.82;99741.87;85847;1299;93995;-60
2022/10/03 01:14:01;;;;;;;7.40;3.30;;;;;;;10.11;87.85;99738.05;85838;1300;78960;-57
2022/10/03 01:16:21;;;;;;;7.40;3.40;;;;;;;10.05;87.98;99736.35;85867;1299;82403;-57
2022/10/03 01:18:46;;;;;;;7.90;3.30;;;;;;;10.08;87.93;99728.38;85841;1301;96835;-61
2022/10/03 01:21:06;;;;;;;5.50;3.00;;;;;;;10.12;87.98;99721.35;85793;1300;87693;-61
2022/10/03 01:24:19;;;;;;;5.80;3.10;;;;;;;10.16;88.04;99719.89;85815;1293;95768;-59
2022/10/03 01:26:56;;;;;;;8.20;3.00;;;;;;;10.19;88.03;99717.48;85802;1302;81900;-58
2022/10/03 01:31:50;;;;;;;7.10;3.40;;;;;;;10.23;87.89;99711.56;85815;1293;97379;-59
2022/10/03 01:34:11;;;;;;;6.60;3.90;;;;;;;10.20;87.94;99712.75;85832;1300;89074;-60
2022/10/03 01:36:37;;;;;;;5.40;2.90;;;;;;;10.17;87.95;99709.77;85775;1299;93938;-59
2022/10/03 01:38:55;;;;;;;4.20;3.00;;;;;;;10.21;87.95;99709.61;85819;1294;82447;-60
2022/10/03 01:41:10;;;;;;;8.30;3.20;;;;;;;10.19;88.00;99709.91;85826;1296;83091;-60
2022/10/03 01:43:31;;;;;;;6.50;3.20;;;;;;;10.21;87.97;99709.60;85849;1299;97566;-61
2022/10/03 01:45:49;;;;;;;5.10;3.00;;;;;;;10.20;87.99;99713.02;85861;1300;89515;-61
2022/10/03 01:48:04;;;;;;;9.60;3.50;;;;;;;10.16;88.04;99711.14;86058;1297;95041;-60
2022/10/03 01:50:27;;;;;;;6.80;3.60;;;;;;;10.17;88.00;99711.17;86085;1296;80671;-59
2022/10/03 01:52:49;;;;;;;5.70;3.20;;;;;;;10.19;87.99;99705.90;86013;1296;82591;-61
2022/10/03 01:55:08;;;;;;;5.20;3.20;;;;;;;10.20;88.03;99705.06;85999;1291;97527;-65
2022/10/03 01:57:28;;;;;;;5.90;3.00;;;;;;;10.19;88.03;99706.80;86082;1296;87653;-61
2022/10/03 01:59:44;;;;;;;4.40;3.50;;;;;;;10.21;88.03;99709.44;86074;1292;93908;-62
2022/10/03 02:02:02;;;;;;;5.60;3.20;;;;;;;10.24;88.05;99705.04;86049;1293;81216;-60
2022/10/03 02:04:32;;;;;;;6.40;3.70;;;;;;;10.23;87.96;99705.95;85998;1299;81363;-58
2022/10/03 02:06:53;;;;;;;4.50;3.40;;;;;;;10.25;88.03;99702.80;86039;1296;96268;-57
2022/10/03 02:09:11;;;;;;;7.40;3.70;;;;;;;10.26;88.00;99702.84;86037;1293;87469;-61
2022/10/03 02:11:35;;;;;;;5.70;3.30;;;;;;;10.24;88.00;99700.34;86012;1297;92573;-61
2022/10/03 02:13:55;;;;;;;5.20;3.10;;;;;;;10.21;88.05;99700.80;85994;1294;81076;-57
2022/10/03 02:16:14;;;;;;;7.30;3.60;;;;;;;10.22;88.07;99698.34;86021;1290;79871;-57
2022/10/03 02:18:43;;;;;;;5.00;3.30;;;;;;;10.25;88.09;99699.81;85985;1299;97754;-57
2022/10/03 02:21:07;;;;;;;5.00;3.40;;;;;;;10.29;88.02;99699.20;86025;1298;86342;-57
2022/10/03 02:23:38;;;;;;;5.50;2.90;;;;;;;10.29;88.09;99694.96;86014;1296;94906;-57
2022/10/03 02:26:06;;;;;;;4.60;3.30;;;;;;;10.31;87.98;99696.05;86015;1293;81000;-55
2022/10/03 02:28:59;;;;;;;7.80;3.80;;;;;;;10.27;88.03;99694.09;86034;1293;81949;-59
2022/10/03 02:31:47;;;;;;;5.50;3.20;;;;;;;10.25;88.15;99699.52;86034;1284;100329;-59
2022/10/03 02:34:25;;;;;;;5.90;3.50;;;;;;;10.28;88.19;99700.52;85958;1294;87764;-60
2022/10/03 02:37:16;;;;;;;8.80;3.60;;;;;;;10.24;88.22;99693.66;85947;1299;95148;-55
2022/10/03 02:40:16;;;;;;;6.80;3.50;;;;;;;10.29;88.13;99692.09;85913;1293;82155;-59
2022/10/03 02:43:32;;;;;;;7.40;3.70;;;;;;;10.28;88.27;99690.98;85922;1298;81886;-59
2022/10/03 02:46:21;;;;;;;8.90;4.80;;;;;;;10.32;88.15;99685.99;85779;1293;98439;-58
2022/10/03 02:49:22;;;;;;;5.20;3.70;;;;;;;10.38;88.11;99684.80;85893;1298;88666;-59
2022/10/03 02:52:10;;;;;;;5.00;3.40;;;;;;;10.39;88.03;99679.82;85860;1300;95627;-60
2022/10/03 02:55:13;;;;;;;8.70;4.60;;;;;;;10.36;88.11;99678.44;85845;1299;82095;-61
2022/10/03 02:58:06;;;;;;;5.30;3.80;;;;;;;10.40;87.99;99683.02;85846;1294;79793;-61
2022/10/03 03:00:22;;;;;;;4.60;3.60;;;;;;;10.38;88.05;99678.06;85876;1293;98759;-53
2022/10/03 03:03:30;;;;;;;6.20;3.30;;;;;;;10.36;88.11;99685.25;85939;1293;89215;-59
2022/10/03 03:06:31;;;;;;;7.00;3.70;;;;;;;10.38;88.14;99673.88;85857;1293;92479;-59
2022/10/03 03:09:32;;;;;;;5.80;3.30;;;;;;;10.41;88.09;99676.83;85881;1293;79831;-59
2022/10/03 03:12:08;;;;;;;5.80;3.40;;;;;;;10.41;88.09;99675.59;85928;1299;81304;-60
2022/10/03 03:14:53;;;;;;;7.40;3.70;;;;;;;10.37;88.07;99670.92;85945;1299;98043;-59
2022/10/03 03:17:31;;;;;;;5.70;3.70;;;;;;;10.34;88.13;99666.85;85912;1293;88601;-59
2022/10/03 03:20:04;;;;;;;8.60;3.30;;;;;;;10.35;88.18;99669.01;85958;1299;94476;-56
2022/10/03 03:22:35;;;;;;;4.50;3.00;;;;;;;10.36;88.04;99669.35;85937;1299;79613;-59
2022/10/03 03:25:08;;;;;;;4.50;3.70;;;;;;;10.38;88.24;99670.38;85928;1300;82032;-60
2022/10/03 03:27:42;;;;;;;8.70;4.20;;;;;;;10.37;88.24;99668.85;85908;1299;96971;-59
2022/10/03 03:30:02;;;;;;;8.10;4.10;;;;;;;10.43;88.20;99667.11;85943;1292;87448;-63
2022/10/03 03:32:30;;;;;;;7.90;4.00;;;;;;;10.45;88.16;99666.13;85952;1293;95495;-62
2022/10/03 03:34:49;;;;;;;10.20;3.90;;;;;;;10.44;88.09;99661.80;85887;1293;82068;-64
2022/10/03 03:37:07;;;;;;;6.00;3.80;;;;;;;10.46;88.11;99655.12;85945;1297;83054;-62
2022/10/03 03:39:39;;;;;;;5.40;4.00;;;;;;;10.47;88.14;99654.99;85892;1294;99289;-60
2022/10/03 03:42:15;;;;;;;5.40;4.00;;;;;;;10.44;88.18;99654.06;85912;1293;86972;-61
2022/10/03 03:45:02;;;;;;;7.40;3.90;;;;;;;10.44;88.19;99650.86;85870;1293;94230;-61
2022/10/03 03:47:36;;;;;;;8.10;4.30;;;;;;;10.46;88.24;99652.91;85882;1293;82053;-60
2022/10/03 03:50:13;;;;;;;8.70;4.00;;;;;;;10.45;88.40;99649.66;85900;1297;80717;-60
2022/10/03 03:52:44;;;;;;;8.10;4.30;;;;;;;10.44;88.44;99648.34;85911;1298;97190;-60
2022/10/03 03:55:23;;;;;;;8.00;4.50;;;;;;;10.45;88.33;99648.50;85901;1293;87477;-61
2022/10/03 03:58:07;;;;;;;6.70;4.20;;;;;;;10.46;88.45;99650.38;85861;1293;92986;-60
2022/10/03 04:00:21;;;;;;;7.70;4.30;;;;;;;10.48;88.39;99647.55;85893;1299;80938;-59
2022/10/03 04:02:55;;;;;;;5.70;4.10;;;;;;;10.45;88.53;99644.77;85938;1292;81079;-62
2022/10/03 04:05:18;;;;;;;6.80;4.30;;;;;;;10.45;88.44;99642.40;85939;1293;98124;-62
2022/10/03 04:07:47;;;;;;;5.10;4.50;;;;;;;10.43;88.59;99641.94;85918;1299;88513;-61
2022/10/03 04:10:42;;;;;;;7.70;4.30;;;;;;;10.45;88.64;99637.58;85943;1300;92829;-61
2022/10/03 04:13:17;;;;;;;6.70;3.90;;;;;;;10.47;88.60;99632.13;85688;1303;82102;-61
2022/10/03 04:15:42;;;;;;;6.10;4.20;;;;;;;10.52;88.53;99622.92;85923;1290;81165;-60
2022/10/03 04:21:16;;;;;;;7.70;4.00;;;;;;;10.49;88.70;99616.52;85906;1298;88850;-62
2022/10/03 04:23:56;;;;;;;7.60;4.30;;;;;;;10.48;88.64;99611.66;85882;1301;93542;-61
2022/10/03 04:26:39;;;;;;;5.30;4.30;;;;;;;10.49;88.62;99613.80;85860;1292;81122;-63
2022/10/03 04:29:34;;;;;;;6.80;4.20;;;;;;;10.51;88.80;99609.17;85887;1300;81489;-61
2022/10/03 04:31:49;;;;;;;;;;;;;;;10.55;88.78;99605.84;85909;1293;97603;-60
2022/10/03 04:34:17;;;;;;;8.00;4.00;;;;;;;10.53;88.87;99605.35;85902;1295;88711;-61
2022/10/03 04:37:10;;;;;;;8.30;4.60;;;;;;;10.54;89.03;99600.90;85884;1294;92782;-60
2022/10/03 04:39:36;;;;;;;6.50;4.90;;;;;;;10.54;88.97;99600.90;85907;1295;82186;-64
2022/10/03 04:41:52;;;;;;;6.60;4.50;;;;;;;10.54;88.99;99601.95;85959;1293;81095;-62
2022/10/03 04:44:19;;;;;;;6.00;3.90;;;;;;;10.54;89.11;99599.19;85921;1294;99391;-58
2022/10/03 04:46:38;;;;;;;6.60;4.20;;;;;;;10.57;89.10;99600.23;85910;1290;87602;-59
2022/10/03 04:49:00;;;;;;;5.00;3.30;;;;;;;10.59;89.14;99603.59;85919;1299;95624;-59
2022/10/03 04:51:32;;;;;;;5.50;3.00;;;;;;;10.56;89.44;99602.89;85930;1300;81135;-58
2022/10/03 04:53:59;;;;;;;4.10;3.30;;;;;;;10.59;89.19;99602.80;85955;1300;82368;-58
2022/10/03 04:56:31;;;;;;;4.90;3.60;;;;;;;10.66;89.13;99603.34;85921;1299;98388;-60
2022/10/03 04:58:55;;;;;;;7.00;3.80;;;;;;;10.67;89.12;99598.67;85956;1299;88211;-59
2022/10/03 05:01:16;;;;;;;8.00;3.70;;;;;;;10.65;89.34;99599.95;85934;1299;93172;-59
2022/10/03 05:03:37;;;;;;;4.30;3.20;;;;;;;10.60;89.54;99600.06;85907;1299;82577;-59
2022/10/03 05:05:56;;;;;;;6.40;3.30;;;;;;;10.58;89.55;99595.95;85895;1294;80553;-59
2022/10/03 05:08:19;;;;;;;6.10;4.30;;;;;;;10.66;89.59;99595.65;85899;1293;97431;-59
2022/10/03 05:10:45;;;;;;;5.30;3.30;;;;;;;10.63;89.67;99596.86;85884;1293;90636;-59
2022/10/03 05:13:07;;;;;;;5.80;3.40;;;;;;;10.62;89.70;99596.11;85904;1298;93749;-59
2022/10/03 05:15:27;;;;;;;7.50;3.50;;;;;;;10.65;89.72;99595.48;85854;1298;81205;-60
2022/10/03 05:17:57;;;;;;;4.50;3.50;;;;;;;10.68;89.79;99587.17;85910;1293;80613;-59
2022/10/03 05:20:23;;;;;;;7.20;3.60;;;;;;;10.73;89.88;99584.42;85888;1293;98006;-59
2022/10/03 05:22:49;;;;;;;3.60;3.20;;;;;;;10.72;90.00;99580.35;85913;1293;88047;-59
2022/10/03 05:25:14;;;;;;;4.00;2.90;;;;;;;10.72;90.07;99579.69;85926;1300;94686;-60
2022/10/03 05:27:37;;;;;;;5.00;3.20;;;;;;;10.73;90.03;99577.68;85924;1295;80656;-60
2022/10/03 05:30:01;;;;;;;6.20;3.20;;;;;;;10.77;90.00;99579.17;85943;1293;83295;-60
2022/10/03 05:32:28;;;;;;;5.40;3.30;;;;;;;10.81;90.08;99574.17;85912;1293;98944;-57
2022/10/03 05:35:00;;;;;;;5.80;3.40;;;;;;;10.87;89.89;99576.16;85936;1293;89841;-58
2022/10/03 05:37:53;;;;;;;4.10;2.90;;;;;;;10.88;89.91;99579.40;85902;1300;94028;-56
2022/10/03 05:40:13;;;;;;;4.30;3.00;;;;;;;10.91;89.88;99579.73;85929;1297;81145;-59
2022/10/03 05:42:47;;;;;;;4.30;2.80;;;;;;;10.90;90.06;99577.50;86023;1293;83275;-60
2022/10/03 05:45:06;;;;;;;6.40;3.10;;;;;;;10.83;90.20;99575.39;86028;1290;97787;-56
2022/10/03 05:47:46;;;;;;;5.50;3.00;;;;;;;10.89;90.21;99574.79;85988;1290;88952;-58
2022/10/03 05:50:27;;;;;;;6.40;3.00;;;;;;;10.95;90.14;99574.48;86057;1292;95213;-60
2022/10/03 05:52:57;;;;;;;6.30;3.10;;;;;;;10.96;90.30;99577.52;86019;1297;80470;-57
2022/10/03 05:55:36;;;;;;;4.50;3.30;;;;;;;10.97;90.29;99575.64;86000;1293;81262;-58
2022/10/03 05:58:42;;;;;;;5.10;2.90;;;;;;;11.00;90.31;99577.67;86072;1297;97570;-57
2022/10/03 06:01:28;;;;;;;4.30;2.80;;;;;;;11.06;90.36;99573.20;85960;1289;87671;-56
2022/10/03 06:04:05;;;;;;;6.10;3.00;;;;;;;11.14;90.34;99572.30;85879;1291;94291;-57
2022/10/03 06:06:27;;;;;;;8.30;3.20;;;;;;;11.19;90.24;99576.45;85792;1297;322679;-57
2022/10/03 06:09:42;;;;;;;4.00;2.60;;;;;;;11.20;90.16;99576.36;86024;1297;81780;-56
2022/10/03 06:12:10;;;;;;;6.60;3.30;;;;;;;11.21;90.25;99574.24;86040;1291;99000;-57
2022/10/03 06:14:44;;;;;;;6.90;3.10;;;;;;;11.27;90.16;99572.30;86052;1297;88806;-58
2022/10/03 06:17:10;;;;;;;7.50;3.00;;;;;;;11.34;90.16;99567.90;86065;1289;93432;-59
2022/10/03 06:19:36;;;;;;;3.40;2.90;;;;;;;11.36;90.13;99564.98;86031;1290;81276;-56
2022/10/03 06:22:38;;;;;;;6.30;3.10;;;;;;;11.37;90.03;99559.98;86045;1297;82402;-57
2022/10/03 06:25:26;;;;;;;8.20;2.90;;;;;;;11.37;90.09;99552.91;85826;1281;98111;-58
2022/10/03 06:28:30;;;;;;;5.50;2.90;;;;;;;11.37;90.13;99551.95;86053;1294;87970;-59
2022/10/03 06:31:11;;;;;;;4.30;2.40;;;;;;;11.39;90.11;99546.88;85991;1293;94354;-61
2022/10/03 06:34:20;;;;;;;5.40;2.60;;;;;;;11.41;90.07;99548.40;86072;1293;80754;-61
2022/10/03 06:36:47;;;;;;;5.80;3.00;;;;;;;11.35;90.06;99550.48;86042;1290;83151;-60
2022/10/03 06:39:54;;;;;;;3.80;2.30;;;;;;;11.34;90.08;99545.58;86002;1297;96933;-61
2022/10/03 06:42:54;;;;;;;4.70;2.20;;;;;;;11.35;89.95;99547.81;86028;1291;87696;-60
2022/10/03 06:45:50;;;;;;;4.00;2.00;;;;;;;11.31;90.16;99549.28;86025;1293;94185;-62
2022/10/03 06:48:08;;;;;;;;;;;;;;;11.30;90.21;99542.52;86040;1296;81854;-61
2022/10/03 06:51:10;;;;;;;5.60;2.00;;;;;;;11.26;90.23;99549.43;86040;1290;82482;-60
2022/10/03 06:53:58;;;;;;;5.30;1.90;;;;;;;11.29;90.18;99552.96;86047;1293;99093;-60
2022/10/03 06:56:59;;;;;;;4.90;2.20;;;;;;;11.34;90.17;99553.30;86052;1297;89102;-59
2022/10/03 06:59:56;;;;;;;3.80;2.30;;;;;;;11.42;90.22;99549.31;86060;1291;92871;-59
2022/10/03 07:03:17;;;;;;;2.40;1.80;;;;;;;11.44;90.35;99551.39;86017;1296;80489;-58
2022/10/03 07:06:08;;;;;;;2.40;1.70;;;;;;;11.43;90.50;99542.53;86117;1291;79675;-59
2022/10/03 07:09:19;;;;;;;4.10;1.60;;;;;;;11.46;90.37;99546.73;86023;1289;98150;-59
2022/10/03 07:12:21;;;;;;;3.40;1.60;;;;;;;11.53;90.40;99553.29;86041;1299;87217;-61
2022/10/03 07:15:04;;;;;;;4.30;1.70;;;;;;;11.55;90.51;99545.46;85987;1293;93261;-58
2022/10/03 07:17:44;;;;;;;2.90;1.90;;;;;;;11.58;90.59;99547.41;86014;1297;78381;-59
2022/10/03 07:20:44;;;;;;;4.60;2.00;;;;;;;11.59;90.48;99548.65;86063;1297;82431;-59
2022/10/03 07:23:34;;;;;;;4.40;1.80;;;;;;;11.57;90.43;99554.70;86019;1297;98661;-60
2022/10/03 07:26:28;;;;;;;3.80;2.00;;;;;;;11.62;90.47;99561.70;86040;1297;88215;-58
2022/10/03 07:29:22;;;;;;;2.00;1.20;;;;;;;11.71;90.30;99563.60;86001;1296;93739;-60
2022/10/03 07:31:49;;;;;;;5.80;1.70;;;;;;;11.78;90.43;99559.42;85973;1297;81986;-60
2022/10/03 07:34:50;;;;;;;2.10;1.50;;;;;;;11.93;90.43;99561.79;85995;1293;81703;-58
2022/10/03 07:40:41;;;;;;;2.60;1.70;;;;;;;12.46;90.40;99555.75;86047;1289;87359;-57
2022/10/03 07:43:15;;;;;;;2.20;1.50;;;;;;;12.67;89.89;99555.89;86070;1292;94213;-59
2022/10/03 07:45:41;;;;;;;3.30;1.40;;;;;;;12.78;89.75;99554.50;86069;1292;82095;-58
2022/10/03 07:48:44;;;;;;;2.70;1.70;;;;;;;12.84;89.63;99552.67;86070;1297;82572;-61
2022/10/03 07:51:16;;;;;;;2.60;1.50;;;;;;;12.81;89.56;99551.78;86076;1293;100269;-59
2022/10/03 07:54:13;;;;;;;2.80;1.50;;;;;;;12.80;89.43;99551.92;86031;1297;87909;-60
2022/10/03 07:56:47;;;;;;;2.60;1.40;;;;;;;12.71;89.02;99552.86;86056;1291;95582;-61
2022/10/03 07:59:30;;;;;;;2.40;1.60;;;;;;;12.71;89.12;99558.39;86029;1297;82334;-60
2022/10/03 08:02:04;;;;;;;3.80;1.70;;;;;;;12.75;88.98;99558.68;86041;1297;82312;-59
2022/10/03 08:04:46;;;;;;;4.80;1.50;;;;;;;12.72;88.76;99562.98;86033;1293;97450;-60
2022/10/03 08:07:11;;;;;;;2.80;1.30;;;;;;;12.70;88.56;99565.45;86027;1291;87760;-60
2022/10/03 08:09:47;;;;;;;2.80;1.60;;;;;;;12.69;88.50;99567.05;85968;1293;93480;-56
2022/10/03 08:12:41;;;;;;;2.90;1.70;;;;;;;12.67;88.41;99561.86;86011;1291;80388;-59
2022/10/03 08:15:03;;;;;;;3.20;1.70;;;;;;;12.59;88.34;99565.59;86045;1292;83008;-61
2022/10/03 08:17:55;;;;;;;5.40;1.60;;;;;;;12.57;88.41;99561.45;86027;1293;98472;-61
2022/10/03 08:20:30;;;;;;;6.20;1.80;;;;;;;12.66;88.54;99563.06;86035;1293;89003;-58
2022/10/03 08:22:57;;;;;;;3.80;2.30;;;;;;;12.71;88.46;99556.88;86076;1299;94415;-57
2022/10/03 08:25:30;;;;;;;2.40;1.60;;;;;;;12.78;88.32;99558.95;86074;1290;82554;-59
2022/10/03 08:28:16;;;;;;;2.50;2.00;;;;;;;12.90;88.38;99556.33;86124;1292;83111;-60
2022/10/03 08:30:38;;;;;;;3.10;1.60;;;;;;;12.97;87.97;99554.86;86038;1296;98147;-60
2022/10/03 08:33:25;;;;;;;4.30;1.90;;;;;;;12.96;87.79;99552.73;86089;1289;89065;-58
2022/10/03 08:36:08;;;;;;;3.20;1.50;;;;;;;12.85;87.48;99550.70;86054;1293;92995;-59
2022/10/03 08:38:53;;;;;;;3.90;2.00;;;;;;;12.74;87.44;99555.77;86033;1291;80271;-60
2022/10/03 08:42:09;;;;;;;4.60;1.70;;;;;;;12.65;87.45;99555.33;85888;1297;82958;-59
2022/10/03 08:45:11;;;;;;;2.70;1.70;;;;;;;12.63;87.42;99560.36;85634;1289;99035;-60
2022/10/03 08:48:26;;;;;;;3.60;1.90;;;;;;;12.67;87.43;99563.52;85615;1304;89336;-60
2022/10/03 08:50:59;;;;;;;3.60;1.70;;;;;;;12.67;87.33;99566.57;86019;1296;94317;-60
2022/10/03 08:54:00;;;;;;;4.50;2.00;;;;;;;12.58;87.43;99561.06;86000;1293;80753;-59
2022/10/03 08:56:13;;;;;;;2.70;1.90;;;;;;;12.55;87.51;99561.94;86042;1284;82004;-58
2022/10/03 08:58:40;;;;;;;;;;;;;;;12.57;87.38;99562.18;86042;1290;97188;-62
2022/10/03 09:01:22;;;;;;;5.20;2.30;;;;;;;12.58;87.51;99562.19;85855;1296;87601;-54
2022/10/03 09:04:12;;;;;;;4.60;2.30;;;;;;;12.56;87.53;99568.02;86017;1290;95601;-60
2022/10/03 09:07:12;;;;;;;2.40;1.90;;;;;;;12.62;87.65;99571.77;86058;1289;80979;-61
2022/10/03 09:09:58;;;;;;;3.60;1.80;;;;;;;12.76;87.68;99575.86;86113;1290;83032;-61
2022/10/03 09:12:41;;;;;;;2.80;1.80;;;;;;;12.75;87.43;99575.11;86094;1296;96206;-59
2022/10/03 09:15:23;;;;;;;3.20;2.50;;;;;;;12.69;87.38;99578.88;85985;1292;88977;-60
2022/10/03 09:18:14;;;;;;;4.40;2.20;;;;;;;12.73;87.34;99577.38;86020;1290;92639;-59
2022/10/03 09:21:16;;;;;;;2.90;2.00;;;;;;;12.76;87.31;99574.43;85842;1298;82020;-56
2022/10/03 09:23:52;;;;;;;3.30;2.10;;;;;;;12.70;87.42;99581.45;86052;1293;82707;-58
2022/10/03 09:26:34;;;;;;;2.70;2.00;;;;;;;12.66;87.34;99582.21;86032;1291;98852;-58
2022/10/03 09:29:44;;;;;;;2.80;2.30;;;;;;;12.71;87.33;99589.33;86035;1290;89473;-61
2022/10/03 09:32:36;;;;;;;3.30;2.50;;;;;;;12.76;87.26;99592.16;85463;1298;94283;-60
2022/10/03 09:35:42;;;;;;;5.00;2.40;;;;;;;12.69;87.17;99586.39;86006;1291;81024;-60
2022/10/03 09:41:27;;;;;;;3.90;2.60;;;;;;;12.68;87.19;99590.05;83200;1326;600956;-58
2022/10/03 09:44:30;;;;;;;5.40;2.60;;;;;;;12.67;87.14;99607.08;85309;1303;80698;-61
2022/10/03 09:47:36;;;;;;;3.30;2.30;;;;;;;12.69;87.43;99614.73;85286;1302;83266;-62
2022/10/03 09:50:18;;;;;;;5.20;2.40;;;;;;;12.74;87.47;99611.98;85329;1309;97460;-60
2022/10/03 09:52:49;;;;;;;5.00;2.30;;;;;;;12.77;87.43;99615.38;85179;1310;88704;-61
2022/10/03 09:55:37;;;;;;;3.30;2.20;;;;;;;12.85;87.37;99615.75;85269;1306;338869;-59
2022/10/03 09:58:30;;;;;;;4.20;2.80;;;;;;;12.94;87.34;99617.46;85570;1306;79596;-59
2022/10/03 10:01:12;;;;;;;3.10;2.30;;;;;;;13.08;87.34;99617.30;85196;1306;80828;-60
2022/10/03 10:04:02;;;;;;;5.00;2.20;;;;;;;13.21;87.44;99625.14;85838;1300;97256;-61
2022/10/03 10:06:31;;;;;;;3.80;2.40;;;;;;;13.24;87.11;99623.90;85843;1297;87140;-60
2022/10/03 10:09:07;;;;;;;4.50;2.60;;;;;;;13.34;87.29;99629.84;85850;1287;94871;-60
2022/10/03 10:11:39;;;;;;;3.20;2.10;;;;;;;13.34;87.01;99628.64;85857;1297;82795;-58
2022/10/03 10:14:36;;;;;;;3.70;2.10;;;;;;;13.31;86.95;99636.38;85840;1297;80943;-53
2022/10/03 10:17:32;;;;;;;3.10;2.30;;;;;;;13.33;87.00;99642.29;85814;1302;97068;-60
2022/10/03 10:19:59;;;;;;;3.70;1.90;;;;;;;13.20;86.97;99647.85;85847;1296;89478;-61
2022/10/03 10:23:03;;;;;;;3.10;2.10;;;;;;;13.11;87.01;99649.36;85790;1295;95285;-61
2022/10/03 10:25:57;;;;;;;3.90;2.40;;;;;;;13.05;87.29;99652.44;85814;1294;81925;-61
2022/10/03 10:29:14;;;;;;;4.00;2.40;;;;;;;13.08;87.42;99660.91;85742;1299;82927;-59
2022/10/03 10:32:05;;;;;;;5.90;2.20;;;;;;;13.11;87.39;99661.45;85494;1306;97032;-61
2022/10/03 10:34:51;;;;;;;4.90;2.90;;;;;;;13.15;87.38;99664.47;85892;1302;86341;-63
2022/10/03 10:37:54;;;;;;;5.00;2.50;;;;;;;13.15;87.36;99662.85;85869;1297;94822;-63
2022/10/03 10:40:53;;;;;;;3.60;1.90;;;;;;;13.02;87.40;99671.95;85872;1301;82529;-62
2022/10/03 10:43:39;;;;;;;2.40;1.70;;;;;;;12.87;87.36;99681.46;85569;1304;82464;-60
2022/10/03 10:49:25;;;;;;;2.70;1.20;;;;;;;12.87;87.75;99691.40;83214;1332;600365;-59
2022/10/03 10:52:38;;;;;;;1.80;1.00;;;;;;;12.80;87.75;99705.45;85297;1302;81737;-62
2022/10/03 10:55:49;;;;;;;2.10;1.50;;;;;;;12.79;87.90;99703.26;85300;1309;82951;-61
2022/10/03 10:58:42;;;;;;;3.70;1.10;;;;;;;12.70;87.91;99711.42;85134;1310;96549;-59
2022/10/03 11:01:28;;;;;;;2.60;1.00;;;;;;;12.70;87.78;99717.33;85307;1304;86992;-60
2022/10/03 11:04:54;;;;;;;3.00;1.00;;;;;;;12.66;87.73;99723.31;85287;1300;93897;-59
2022/10/03 11:07:34;;;;;;;1.10;0.80;;;;;;;12.78;87.60;99731.16;85532;1307;80620;-59
2022/10/03 11:10:34;;;;;;;1.70;0.70;;;;;;;13.09;87.35;99742.13;85501;1299;82615;-60
2022/10/03 11:16:13;;;;;;;1.20;0.70;;;;;;;13.09;86.47;99749.96;83312;1333;599961;-59
2022/10/03 11:19:20;;;;;;;1.10;0.70;;;;;;;13.09;85.94;99752.21;85532;1300;80246;-59
2022/10/03 11:22:45;;;;;;;2.60;0.80;;;;;;;13.10;85.66;99763.39;85568;1301;82215;-59
2022/10/03 11:26:06;;;;;;;3.40;0.80;;;;;;;13.14;85.32;99779.63;84626;1314;94604;-62
2022/10/03 11:29:39;;;;;;;2.10;0.80;;;;;;;13.30;85.02;99783.05;84713;1314;445029;-61
2022/10/03 11:32:55;;;;;;;1.50;1.00;;;;;;;13.49;83.60;99789.71;85053;1306;94934;-61
2022/10/03 11:36:10;;;;;;;1.50;0.80;;;;;;;13.38;82.92;99789.36;84769;1310;79352;-61
2022/10/03 11:38:24;;;;;;;1.40;1.00;;;;;;;13.13;82.35;99795.58;85170;1310;82963;-58
2022/10/03 11:40:53;;;;;;;2.90;1.10;;;;;;;13.10;82.24;99799.36;85614;1304;98213;-59
2022/10/03 11:43:49;;;;;;;1.40;1.00;;;;;;;12.97;81.55;99790.95;85654;1304;88768;-60
2022/10/03 11:46:18;;;;;;;3.00;1.00;;;;;;;13.01;80.83;99800.67;85623;1301;95101;-58
2022/10/03 11:48:42;;;;;;;2.40;0.80;;;;;;;12.95;79.40;99788.17;85673;1305;80860;-62
2022/10/03 11:50:54;;;;;;;1.60;0.90;;;;;;;12.95;79.43;99795.67;85779;1301;83293;-61
2022/10/03 11:53:28;;;;;;;3.80;1.20;;;;;;;12.99;79.21;99789.73;85801;1297;97103;-59
2022/10/03 11:55:42;;;;;;;3.10;1.10;;;;;;;13.11;79.08;99788.91;85841;1301;87957;-58
2022/10/03 11:58:10;;;;;;;7.90;1.20;;;;;;;13.17;78.18;99797.09;85826;1301;94627;-60
2022/10/03 12:00:22;;;;;;;2.90;1.10;;;;;;;13.16;77.54;99797.96;85805;1301;80394;-60
2022/10/03 12:02:56;;;;;;;1.40;0.90;;;;;;;13.18;77.17;99794.41;85861;1298;81683;-60
2022/10/03 12:05:22;;;;;;;1.90;1.00;;;;;;;13.26;77.04;99798.64;85844;1301;97406;-60
2022/10/03 12:10:59;;;;;;;1.90;1.00;;;;;;;13.37;75.68;99800.63;85812;1304;95215;-60
2022/10/03 12:13:16;;;;;;;1.80;1.20;;;;;;;13.50;75.65;99794.55;85844;1298;80873;-59
2022/10/03 12:15:37;;;;;;;2.30;1.00;;;;;;;13.59;75.90;99800.02;85809;1304;82088;-61
2022/10/03 12:17:55;;;;;;;5.30;1.30;;;;;;;13.60;74.95;99797.80;85823;1295;97965;-60
2022/10/03 12:20:21;;;;;;;3.20;1.10;;;;;;;13.67;74.87;99795.77;85797;1301;87302;-60
2022/10/03 12:22:50;;;;;;;2.70;1.00;;;;;;;13.85;74.90;99802.27;85796;1301;94527;-61
2022/10/03 12:25:13;;;;;;;2.10;1.40;;;;;;;14.00;74.71;99798.30;85805;1298;80286;-62
2022/10/03 12:27:34;;;;;;;1.70;1.10;;;;;;;14.14;74.68;99799.39;85801;1296;83661;-61
2022/10/03 12:29:52;;;;;;;2.30;1.10;;;;;;;14.38;74.75;99804.84;85791;1298;98057;-59
2022/10/03 12:32:30;;;;;;;5.70;1.20;;;;;;;14.41;72.51;99807.91;85811;1300;88088;-59
2022/10/03 12:34:50;;;;;;;2.90;1.10;;;;;;;14.41;72.37;99816.62;85796;1301;94690;-60
2022/10/03 12:37:22;;;;;;;2.20;1.10;;;;;;;14.28;71.49;99812.73;85802;1298;78281;-59
2022/10/03 12:39:49;;;;;;;2.00;1.00;;;;;;;14.09;71.51;99830.15;85859;1298;80521;-60
2022/10/03 12:42:25;;;;;;;3.60;1.00;;;;;;;13.95;71.43;99832.04;85767;1304;97014;-58
2022/10/03 12:44:49;;;;;;;4.30;1.00;;;;;;;13.80;70.76;99834.45;85851;1298;88161;-57
2022/10/03 12:47:16;;;;;;;3.20;0.70;;;;;;;13.63;70.78;99845.33;85820;1297;95070;-57